createdAt,value
2022-11-26T00:01:24.183Z,25.60
2022-11-26T00:03:53.331Z,22.27
2022-11-26T00:06:29.972Z,13.48
2022-11-26T00:09:00.600Z,20.98
2022-11-26T00:11:29.493Z,17.60
2022-11-26T00:13:57.959Z,12.63
2022-11-26T00:16:27.437Z,15.02
2022-11-26T00:18:55.851Z,17.13
2022-11-26T00:21:27.095Z,26.75
2022-11-26T00:23:56.106Z,26.25
2022-11-26T00:26:27.448Z,13.27
2022-11-26T00:29:00.221Z,19.42
2022-11-26T00:31:30.030Z,21.33
2022-11-26T00:33:58.690Z,15.98
2022-11-26T00:36:31.525Z,14.02
2022-11-26T00:39:05.561Z,13.68
2022-11-26T00:41:39.781Z,15.57
2022-11-26T00:44:19.220Z,18.05
2022-11-26T00:46:47.701Z,14.55
2022-11-26T00:49:16.851Z,11.27
2022-11-26T00:51:45.468Z,19.23
2022-11-26T00:54:17.618Z,17.00
2022-11-26T00:56:48.108Z,11.43
2022-11-26T00:59:21.613Z,14.85
2022-11-26T01:01:50.997Z,16.77
2022-11-26T01:04:19.352Z,17.15
2022-11-26T01:06:47.915Z,15.95
2022-11-26T01:09:20.079Z,16.40
2022-11-26T01:11:53.956Z,17.70
2022-11-26T01:14:24.179Z,14.07
2022-11-26T01:16:54.603Z,14.02
2022-11-26T01:19:22.910Z,14.70
2022-11-26T01:21:51.363Z,20.48
2022-11-26T01:24:19.616Z,14.20
2022-11-26T01:26:49.592Z,18.70
2022-11-26T01:29:19.571Z,20.92
2022-11-26T01:31:48.170Z,18.35
2022-11-26T01:34:16.481Z,22.20
2022-11-26T01:36:44.930Z,15.10
2022-11-26T01:39:19.347Z,16.55
2022-11-26T01:41:56.192Z,19.58
2022-11-26T01:44:27.679Z,14.35
2022-11-26T01:46:56.624Z,18.52
2022-11-26T01:49:31.050Z,18.48
2022-11-26T01:52:05.275Z,17.55
2022-11-26T01:54:36.603Z,21.98
2022-11-26T01:57:11.801Z,22.33
2022-11-26T02:02:10.799Z,18.35
2022-11-26T02:04:44.916Z,23.83
2022-11-26T02:07:13.457Z,22.70
2022-11-26T02:09:42.223Z,19.25
2022-11-26T02:12:12.232Z,13.77
2022-11-26T02:14:43.247Z,19.38
2022-11-26T02:17:19.930Z,16.80
2022-11-26T02:20:27.851Z,15.35
2022-11-26T02:23:38.086Z,20.05
2022-11-26T02:26:49.550Z,16.02
2022-11-26T02:29:30.173Z,18.08
2022-11-26T02:32:07.217Z,16.83
2022-11-26T02:34:41.840Z,18.05
2022-11-26T02:37:17.223Z,13.73
2022-11-26T02:39:46.143Z,15.80
2022-11-26T02:42:26.884Z,18.02
2022-11-26T02:44:59.053Z,16.35
2022-11-26T02:47:30.868Z,12.13
2022-11-26T02:50:05.682Z,18.88
2022-11-26T02:52:36.481Z,16.50
2022-11-26T02:55:08.411Z,22.60
2022-11-26T02:57:45.521Z,17.88
2022-11-26T03:00:15.424Z,19.77
2022-11-26T03:02:51.525Z,18.45
2022-11-26T03:05:21.501Z,20.58
2022-11-26T03:07:54.178Z,14.48
2022-11-26T03:10:29.291Z,20.13
2022-11-26T03:15:26.343Z,21.00
2022-11-26T03:17:56.060Z,12.50
2022-11-26T03:20:24.790Z,14.30
2022-11-26T03:22:53.180Z,14.18
2022-11-26T03:25:21.726Z,14.55
2022-11-26T03:27:50.239Z,26.02
2022-11-26T03:30:19.189Z,17.42
2022-11-26T03:32:47.497Z,20.40
2022-11-26T03:35:17.621Z,16.55
2022-11-26T03:37:45.986Z,22.52
2022-11-26T03:40:16.678Z,18.23
2022-11-26T03:42:45.435Z,19.08
2022-11-26T03:45:14.158Z,11.57
2022-11-26T03:47:42.547Z,17.08
2022-11-26T03:50:11.866Z,14.52
2022-11-26T03:52:41.612Z,17.17
2022-11-26T03:55:11.195Z,21.17
2022-11-26T03:57:39.635Z,22.20
2022-11-26T04:00:10.236Z,13.85
2022-11-26T04:02:38.728Z,20.23
2022-11-26T04:05:08.349Z,15.73
2022-11-26T04:07:37.081Z,15.23
2022-11-26T04:10:08.811Z,15.38
2022-11-26T04:12:37.487Z,22.23
2022-11-26T04:15:06.691Z,16.45
2022-11-26T04:17:35.211Z,19.52
2022-11-26T04:20:03.754Z,19.50
2022-11-26T04:22:32.111Z,16.27
2022-11-26T04:25:00.730Z,15.75
2022-11-26T04:27:30.457Z,13.77
2022-11-26T04:29:58.847Z,16.40
2022-11-26T04:32:27.363Z,22.67
2022-11-26T04:34:55.695Z,14.35
2022-11-26T04:37:24.257Z,16.67
2022-11-26T04:39:52.539Z,22.13
2022-11-26T04:42:20.982Z,18.08
2022-11-26T04:44:50.648Z,20.48
2022-11-26T04:47:19.141Z,17.85
2022-11-26T04:49:47.477Z,19.13
2022-11-26T04:52:15.771Z,78.88
2022-11-26T04:54:44.131Z,40.55
2022-11-26T04:57:12.510Z,19.05
2022-11-26T04:59:40.855Z,14.55
2022-11-26T05:02:10.508Z,17.27
2022-11-26T05:04:39.094Z,22.73
2022-11-26T05:07:07.712Z,18.33
2022-11-26T05:09:36.375Z,19.52
2022-11-26T05:12:05.091Z,13.30
2022-11-26T05:14:33.377Z,14.38
2022-11-26T05:17:01.730Z,14.65
2022-11-26T05:19:31.592Z,23.23
2022-11-26T05:21:59.904Z,22.80
2022-11-26T05:24:28.300Z,17.73
2022-11-26T05:26:57.440Z,15.98
2022-11-26T05:29:26.979Z,14.07
2022-11-26T05:31:55.383Z,12.57
2022-11-26T05:34:23.755Z,18.80
2022-11-26T05:36:53.541Z,12.80
2022-11-26T05:39:22.297Z,9.93
2022-11-26T05:41:50.646Z,16.08
2022-11-26T05:44:18.989Z,12.88
2022-11-26T05:46:47.601Z,13.98
2022-11-26T05:49:16.001Z,12.32
2022-11-26T05:51:44.245Z,32.50
2022-11-26T05:54:16.317Z,25.75
2022-11-26T05:56:45.306Z,20.17
2022-11-26T05:59:13.554Z,16.30
2022-11-26T06:01:42.061Z,16.45
2022-11-26T06:04:10.339Z,16.52
2022-11-26T06:06:38.735Z,14.73
2022-11-26T06:09:07.187Z,12.50
2022-11-26T06:11:36.818Z,14.13
2022-11-26T06:14:05.126Z,14.88
2022-11-26T06:16:33.593Z,15.13
2022-11-26T06:19:02.062Z,16.45
2022-11-26T06:21:30.422Z,14.50
2022-11-26T06:23:59.818Z,20.42
2022-11-26T06:26:28.581Z,20.85
2022-11-26T06:28:58.559Z,22.27
2022-11-26T06:31:27.116Z,16.42
2022-11-26T06:33:56.200Z,19.60
2022-11-26T06:36:25.247Z,16.77
2022-11-26T06:38:53.548Z,15.85
2022-11-26T06:41:22.041Z,16.42
2022-11-26T06:43:50.671Z,18.40
2022-11-26T06:46:20.817Z,16.98
2022-11-26T06:48:49.169Z,17.13
2022-11-26T06:51:20.445Z,17.40
2022-11-26T06:53:48.996Z,21.48
2022-11-26T06:56:19.387Z,17.70
2022-11-26T06:58:48.744Z,19.30
2022-11-26T07:01:21.228Z,20.25
2022-11-26T07:03:49.852Z,15.65
2022-11-26T07:06:20.240Z,15.50
2022-11-26T07:08:49.790Z,24.83
2022-11-26T07:11:18.942Z,20.02
2022-11-26T07:13:47.449Z,16.67
2022-11-26T07:16:16.570Z,21.45
2022-11-26T07:18:50.032Z,22.98
2022-11-26T07:21:19.312Z,18.00
2022-11-26T07:23:48.602Z,15.10
2022-11-26T07:26:19.202Z,20.27
2022-11-26T07:28:48.202Z,12.65
2022-11-26T07:31:20.602Z,16.23
2022-11-26T07:33:51.541Z,15.77
2022-11-26T07:36:23.338Z,18.75
2022-11-26T07:38:54.039Z,16.70
2022-11-26T07:41:22.782Z,17.95
2022-11-26T07:43:51.290Z,19.13
2022-11-26T07:46:27.581Z,21.40
2022-11-26T07:48:58.016Z,16.83
2022-11-26T07:51:28.564Z,21.80
2022-11-26T07:53:58.793Z,16.00
2022-11-26T07:56:27.511Z,23.42
2022-11-26T07:58:56.398Z,21.05
2022-11-26T08:01:28.305Z,20.58
2022-11-26T08:04:00.017Z,14.05
2022-11-26T08:06:31.094Z,18.80
2022-11-26T08:09:02.335Z,19.15
2022-11-26T08:11:33.081Z,14.68
2022-11-26T08:14:04.183Z,19.27
2022-11-26T08:16:32.855Z,18.90
2022-11-26T08:19:06.791Z,14.65
2022-11-26T08:21:35.863Z,18.42
2022-11-26T08:24:04.947Z,20.08
2022-11-26T08:26:37.412Z,17.45
2022-11-26T08:29:08.569Z,16.55
2022-11-26T08:31:45.230Z,17.75
2022-11-26T08:34:17.938Z,16.67
2022-11-26T08:37:13.341Z,17.85
2022-11-26T08:40:01.920Z,16.27
2022-11-26T08:42:32.264Z,17.98
2022-11-26T08:45:00.756Z,16.60
2022-11-26T08:47:29.927Z,18.45
2022-11-26T08:49:59.570Z,24.70
2022-11-26T08:52:28.648Z,21.48
2022-11-26T08:54:56.987Z,26.83
2022-11-26T08:57:25.344Z,12.95
2022-11-26T08:59:55.031Z,23.23
2022-11-26T09:02:25.082Z,26.50
2022-11-26T09:04:55.779Z,22.70
2022-11-26T09:07:25.903Z,29.23
2022-11-26T09:09:54.246Z,19.17
2022-11-26T09:12:22.924Z,23.55
2022-11-26T09:14:51.383Z,22.98
2022-11-26T09:17:19.896Z,18.45
2022-11-26T09:19:48.284Z,16.45
2022-11-26T09:22:16.868Z,23.58
2022-11-26T09:24:46.700Z,17.40
2022-11-26T09:27:15.189Z,22.55
2022-11-26T09:29:43.641Z,17.52
2022-11-26T09:32:32.608Z,20.85
2022-11-26T09:35:00.579Z,22.52
2022-11-26T09:37:28.941Z,16.17
2022-11-26T09:39:58.578Z,18.38
2022-11-26T09:42:41.392Z,22.13
2022-11-26T09:45:27.811Z,19.88
2022-11-26T09:47:56.479Z,14.35
2022-11-26T09:50:31.793Z,16.08
2022-11-26T09:53:04.053Z,18.13
2022-11-26T09:55:37.080Z,15.68
2022-11-26T09:58:13.852Z,25.80
2022-11-26T10:00:44.891Z,20.42
2022-11-26T10:03:17.836Z,14.65
2022-11-26T10:05:56.096Z,16.55
2022-11-26T10:08:52.894Z,16.48
2022-11-26T10:11:30.315Z,20.13
2022-11-26T10:14:11.310Z,20.85
2022-11-26T10:16:47.417Z,29.58
2022-11-26T10:19:24.284Z,22.63
2022-11-26T10:21:59.010Z,20.65
2022-11-26T10:24:31.847Z,21.15
2022-11-26T10:27:12.661Z,20.30
2022-11-26T10:29:45.239Z,16.67
2022-11-26T10:32:18.056Z,22.67
2022-11-26T10:34:52.318Z,28.30
2022-11-26T10:37:23.654Z,21.20
2022-11-26T10:40:03.163Z,15.80
2022-11-26T10:42:43.944Z,22.38
2022-11-26T10:45:21.354Z,19.13
2022-11-26T10:47:50.078Z,18.80
2022-11-26T10:53:23.032Z,24.33
2022-11-26T10:55:53.450Z,19.15
2022-11-26T10:58:27.094Z,13.77
2022-11-26T11:01:04.815Z,27.00
2022-11-26T11:04:09.415Z,19.20
2022-11-26T11:06:38.906Z,30.15
2022-11-26T11:09:26.841Z,17.25
2022-11-26T11:12:25.110Z,25.15
2022-11-26T11:14:55.171Z,18.02
2022-11-26T11:17:37.737Z,20.30
2022-11-26T11:20:30.402Z,23.85
2022-11-26T11:23:04.130Z,19.25
2022-11-26T11:25:35.071Z,26.30
2022-11-26T11:28:12.434Z,16.20
2022-11-26T11:30:43.619Z,23.48
2022-11-26T11:33:20.717Z,18.60
2022-11-26T11:36:15.051Z,27.08
2022-11-26T11:38:50.680Z,22.15
2022-11-26T11:41:34.307Z,18.77
2022-11-26T11:44:08.343Z,18.85
2022-11-26T11:47:13.060Z,15.07
2022-11-26T11:49:58.724Z,16.38
2022-11-26T11:52:41.566Z,15.90
2022-11-26T11:55:22.210Z,16.92
2022-11-26T11:58:14.908Z,18.23
2022-11-26T12:00:52.627Z,18.73
2022-11-26T12:03:57.591Z,19.98
2022-11-26T12:06:39.819Z,15.40
2022-11-26T12:09:21.612Z,14.85
2022-11-26T12:11:57.936Z,15.93
2022-11-26T12:14:31.566Z,16.05
2022-11-26T12:17:06.910Z,21.73
2022-11-26T12:19:42.603Z,17.42
2022-11-26T12:22:18.447Z,14.80
2022-11-26T12:24:51.967Z,18.20
2022-11-26T12:27:30.127Z,19.00
2022-11-26T12:30:08.524Z,19.42
2022-11-26T12:32:46.516Z,14.90
2022-11-26T12:35:20.993Z,13.93
2022-11-26T12:37:52.935Z,19.13
2022-11-26T12:40:32.844Z,14.93
2022-11-26T12:43:07.216Z,17.10
2022-11-26T12:45:48.052Z,10.82
2022-11-26T12:48:37.610Z,27.00
2022-11-26T12:51:22.895Z,23.45
2022-11-26T12:53:57.015Z,33.97
2022-11-26T12:56:32.369Z,22.35
2022-11-26T12:59:07.619Z,14.05
2022-11-26T13:01:36.182Z,18.13
2022-11-26T13:04:36.273Z,15.18
2022-11-26T13:07:18.645Z,15.50
2022-11-26T13:10:03.056Z,16.48
2022-11-26T13:12:46.589Z,14.88
2022-11-26T13:15:24.336Z,17.88
2022-11-26T13:17:53.262Z,17.88
2022-11-26T13:20:52.778Z,12.68
2022-11-26T13:23:43.076Z,12.88
2022-11-26T13:26:38.231Z,10.38
2022-11-26T13:29:35.978Z,16.70
2022-11-26T13:32:34.404Z,15.43
2022-11-26T13:35:19.715Z,14.40
2022-11-26T13:38:04.046Z,17.92
2022-11-26T13:40:59.910Z,11.30
2022-11-26T13:44:01.722Z,19.73
2022-11-26T13:46:32.390Z,15.20
2022-11-26T13:49:07.210Z,10.77
2022-11-26T13:51:44.591Z,14.00
2022-11-26T13:54:17.266Z,14.35
2022-11-26T13:56:49.450Z,15.93
2022-11-26T13:59:28.033Z,12.88
2022-11-26T14:01:57.576Z,13.55
2022-11-26T14:04:54.722Z,16.67
2022-11-26T14:07:23.203Z,14.90
2022-11-26T14:09:55.470Z,12.05
2022-11-26T14:13:04.478Z,12.95
2022-11-26T14:15:59.159Z,16.90
2022-11-26T14:19:00.505Z,13.83
2022-11-26T14:21:31.089Z,11.85
2022-11-26T14:24:02.063Z,12.40
2022-11-26T14:26:37.259Z,12.95
2022-11-26T14:29:17.514Z,15.80
2022-11-26T14:31:52.230Z,14.50
2022-11-26T14:34:27.435Z,18.88
2022-11-26T14:36:59.162Z,16.60
2022-11-26T14:39:28.915Z,13.95
2022-11-26T14:42:05.658Z,14.63
2022-11-26T14:44:36.557Z,11.30
2022-11-26T14:47:14.973Z,12.07
2022-11-26T14:49:51.421Z,13.35
2022-11-26T14:52:23.898Z,15.23
2022-11-26T14:54:56.124Z,9.43
2022-11-26T14:57:30.969Z,11.85
2022-11-26T15:00:03.922Z,19.33
2022-11-26T15:02:33.358Z,9.80
2022-11-26T15:05:10.818Z,10.75
2022-11-26T15:07:39.675Z,21.33
2022-11-26T15:10:19.355Z,17.05
2022-11-26T15:12:50.284Z,16.38
2022-11-26T15:15:23.748Z,18.23
2022-11-26T15:17:59.081Z,17.13
2022-11-26T15:20:28.347Z,21.50
2022-11-26T15:22:59.777Z,14.00
2022-11-26T15:25:31.201Z,16.75
2022-11-26T15:28:03.987Z,29.23
2022-11-26T15:30:36.733Z,15.13
2022-11-26T15:33:15.131Z,13.40
2022-11-26T15:35:43.954Z,15.57
2022-11-26T15:38:16.537Z,24.13
2022-11-26T15:40:48.418Z,19.48
2022-11-26T15:43:23.580Z,21.75
2022-11-26T15:45:55.863Z,25.90
2022-11-26T15:48:50.099Z,23.50
2022-11-26T15:51:25.098Z,21.55
2022-11-26T15:53:53.930Z,18.30
2022-11-26T15:56:26.123Z,20.77
2022-11-26T15:58:58.253Z,17.73
2022-11-26T16:01:33.567Z,24.00
2022-11-26T16:04:06.111Z,13.98
2022-11-26T16:06:37.588Z,19.13
2022-11-26T16:09:27.870Z,21.42
2022-11-26T16:12:01.789Z,22.48
2022-11-26T16:14:33.815Z,25.88
2022-11-26T16:17:08.730Z,22.85
2022-11-26T16:19:38.654Z,16.95
2022-11-26T16:22:08.132Z,18.27
2022-11-26T16:24:40.786Z,20.95
2022-11-26T16:27:26.889Z,28.45
2022-11-26T16:29:55.400Z,15.73
2022-11-26T16:32:25.446Z,16.42
2022-11-26T16:34:53.899Z,22.73
2022-11-26T16:37:24.969Z,25.30
2022-11-26T16:40:02.743Z,29.65
2022-11-26T16:42:33.306Z,22.67
2022-11-26T16:45:04.378Z,23.40
2022-11-26T16:47:39.462Z,24.75
2022-11-26T16:52:43.270Z,31.52
2022-11-26T16:55:14.819Z,39.72
2022-11-26T16:57:46.570Z,23.33
2022-11-26T17:00:19.873Z,22.10
2022-11-26T17:02:49.912Z,21.95
2022-11-26T17:05:19.660Z,25.20
2022-11-26T17:07:51.035Z,31.08
2022-11-26T17:10:21.932Z,29.13
2022-11-26T17:12:50.691Z,18.15
2022-11-26T17:15:19.371Z,22.17
2022-11-26T17:17:50.220Z,25.00
2022-11-26T17:20:22.197Z,25.42
2022-11-26T17:22:51.956Z,21.75
2022-11-26T17:25:21.401Z,31.17
2022-11-26T17:27:49.989Z,22.35
2022-11-26T17:30:22.663Z,30.58
2022-11-26T17:32:52.811Z,35.50
2022-11-26T17:35:21.321Z,22.77
2022-11-26T17:37:49.709Z,27.30
2022-11-26T17:40:22.124Z,25.08
2022-11-26T17:42:51.861Z,27.55
2022-11-26T17:45:21.048Z,23.42
2022-11-26T17:47:52.386Z,25.48
2022-11-26T17:50:24.879Z,30.13
2022-11-26T17:52:54.778Z,31.13
2022-11-26T17:55:25.432Z,22.90
2022-11-26T17:57:55.194Z,24.30
2022-11-26T18:00:29.166Z,33.22
2022-11-26T18:02:59.276Z,32.08
2022-11-26T18:05:28.254Z,42.83
2022-11-26T18:07:56.695Z,40.22
2022-11-26T18:10:25.365Z,29.13
2022-11-26T18:12:55.219Z,33.53
2022-11-26T18:15:26.535Z,27.08
2022-11-26T18:17:57.969Z,31.80
2022-11-26T18:20:29.312Z,29.33
2022-11-26T18:23:00.620Z,32.35
2022-11-26T18:25:30.340Z,29.98
2022-11-26T18:27:58.845Z,27.92
2022-11-26T18:30:30.584Z,27.17
2022-11-26T18:33:01.717Z,28.77
2022-11-26T18:35:30.171Z,24.70
2022-11-26T18:37:58.612Z,23.83
2022-11-26T18:40:27.572Z,21.25
2022-11-26T18:42:55.967Z,16.30
2022-11-26T18:45:24.388Z,22.63
2022-11-26T18:47:52.840Z,26.48
2022-11-26T18:50:22.617Z,30.20
2022-11-26T18:52:50.975Z,22.00
2022-11-26T18:55:19.984Z,21.23
2022-11-26T18:57:48.686Z,20.38
2022-11-26T19:00:18.040Z,18.05
2022-11-26T19:02:46.493Z,18.27
2022-11-26T19:05:15.522Z,21.02
2022-11-26T19:07:45.305Z,19.13
2022-11-26T19:10:14.054Z,18.67
2022-11-26T19:12:42.468Z,23.67
2022-11-26T19:15:11.586Z,31.10
2022-11-26T19:17:39.927Z,23.38
2022-11-26T19:20:09.640Z,21.17
2022-11-26T19:22:38.015Z,21.17
2022-11-26T19:25:09.485Z,24.73
2022-11-26T19:27:38.349Z,26.52
2022-11-26T19:30:09.419Z,33.72
2022-11-26T19:32:37.731Z,28.75
2022-11-26T19:35:07.284Z,35.28
2022-11-26T19:37:35.652Z,24.20
2022-11-26T19:40:10.306Z,25.88
2022-11-26T19:42:38.724Z,23.55
2022-11-26T19:45:08.671Z,26.40
2022-11-26T19:47:37.207Z,26.17
2022-11-26T19:50:07.275Z,22.77
2022-11-26T19:52:35.957Z,21.83
2022-11-26T19:55:04.920Z,24.45
2022-11-26T19:57:34.784Z,22.98
2022-11-26T20:00:03.158Z,36.03
2022-11-26T20:02:33.648Z,27.75
2022-11-26T20:05:03.177Z,27.52
2022-11-26T20:07:31.580Z,18.30
2022-11-26T20:10:00.249Z,19.55
2022-11-26T20:12:28.554Z,21.73
2022-11-26T20:14:59.373Z,22.15
2022-11-26T20:17:27.744Z,25.30
2022-11-26T20:19:56.214Z,22.42
2022-11-26T20:22:27.981Z,17.83
2022-11-26T20:24:56.808Z,21.60
2022-11-26T20:27:25.476Z,21.98
2022-11-26T20:29:54.001Z,21.88
2022-11-26T20:32:23.916Z,27.98
2022-11-26T20:34:52.397Z,28.35
2022-11-26T20:37:20.743Z,36.30
2022-11-26T20:39:49.213Z,28.40
2022-11-26T20:42:17.559Z,20.13
2022-11-26T20:44:46.088Z,22.02
2022-11-26T20:47:14.592Z,22.25
2022-11-26T20:49:44.427Z,17.13
2022-11-26T20:52:13.349Z,18.88
2022-11-26T20:54:41.874Z,21.85
2022-11-26T20:57:10.400Z,19.15
2022-11-26T20:59:38.949Z,18.90
2022-11-26T21:02:08.234Z,25.38
2022-11-26T21:04:36.690Z,22.58
2022-11-26T21:07:06.594Z,33.90
2022-11-26T21:09:34.943Z,34.65
2022-11-26T21:12:03.196Z,48.70
2022-11-26T21:14:31.887Z,54.97
2022-11-26T21:17:00.418Z,107.20
2022-11-26T21:19:29.083Z,65.95
2022-11-26T21:21:57.653Z,70.28
2022-11-26T21:24:27.395Z,111.10
2022-11-26T21:26:55.720Z,127.43
2022-11-26T21:29:24.233Z,123.82
2022-11-26T21:31:52.952Z,180.70
2022-11-26T21:34:21.332Z,154.10
2022-11-26T21:36:49.645Z,168.65
2022-11-26T21:39:18.272Z,117.38
2022-11-26T21:41:48.082Z,60.97
2022-11-26T21:44:16.845Z,58.20
2022-11-26T21:46:45.452Z,42.25
2022-11-26T21:49:14.185Z,33.67
2022-11-26T21:51:42.727Z,30.67
2022-11-26T21:54:11.104Z,51.75
2022-11-26T21:56:39.531Z,52.35
2022-11-26T21:59:11.195Z,165.77
2022-11-26T22:01:40.156Z,78.32
2022-11-26T22:04:14.472Z,32.17
2022-11-26T22:06:44.694Z,60.88
2022-11-26T22:09:14.260Z,89.70
2022-11-26T22:11:45.804Z,50.58
2022-11-26T22:14:17.997Z,37.30
2022-11-26T22:16:48.180Z,32.42
2022-11-26T22:19:16.455Z,81.72
2022-11-26T22:21:46.054Z,158.02
2022-11-26T22:24:17.218Z,62.13
2022-11-26T22:26:46.161Z,226.85
2022-11-26T22:29:17.517Z,105.05
2022-11-26T22:31:48.161Z,33.05
2022-11-26T22:34:19.010Z,47.78
2022-11-26T22:36:47.613Z,31.00
2022-11-26T22:39:18.444Z,135.20
2022-11-26T22:41:48.997Z,92.05
2022-11-26T22:44:19.432Z,56.85
2022-11-26T22:46:48.106Z,65.32
2022-11-26T22:49:19.058Z,59.15
2022-11-26T22:51:47.963Z,29.67
2022-11-26T22:54:18.816Z,29.63
2022-11-26T22:56:47.288Z,24.45
2022-11-26T22:59:16.237Z,33.05
2022-11-26T23:01:45.959Z,21.73
2022-11-26T23:04:14.591Z,46.88
2022-11-26T23:06:42.978Z,47.10
2022-11-26T23:09:13.558Z,43.78
2022-11-26T23:11:44.037Z,83.57
2022-11-26T23:14:12.949Z,23.90
2022-11-26T23:16:43.424Z,23.13
2022-11-26T23:19:16.659Z,18.48
2022-11-26T23:21:46.982Z,20.55
2022-11-26T23:24:17.505Z,20.70
2022-11-26T23:26:46.945Z,23.13
2022-11-26T23:29:15.796Z,24.80
2022-11-26T23:31:45.659Z,20.52
2022-11-26T23:34:16.111Z,21.83
2022-11-26T23:36:44.507Z,22.15
2022-11-26T23:39:14.504Z,17.38
2022-11-26T23:41:43.779Z,21.42
2022-11-26T23:44:12.203Z,17.55
2022-11-26T23:46:41.020Z,22.35
2022-11-26T23:49:09.654Z,18.08
2022-11-26T23:51:39.543Z,20.13
2022-11-26T23:54:07.850Z,19.27
2022-11-26T23:56:36.720Z,20.92
2022-11-26T23:59:05.664Z,19.35
